sensor_id;sensor_type;location;lat;lon;timestamp;pressure;altitude;pressure_sealevel;temperature;humidity
75940;BME280;75809;44.872;20.642;2024-01-30T00:02:23;102927.50;;;2.67;76.05
75940;BME280;75809;44.872;20.642;2024-01-30T00:04:49;102923.19;;;2.72;75.01
75940;BME280;75809;44.872;20.642;2024-01-30T00:07:14;102927.56;;;2.73;75.20
75940;BME280;75809;44.872;20.642;2024-01-30T00:09:40;102922.28;;;2.69;75.51
75940;BME280;75809;44.872;20.642;2024-01-30T00:12:06;102925.66;;;2.63;75.33
75940;BME280;75809;44.872;20.642;2024-01-30T00:14:31;102925.66;;;2.63;74.84
75940;BME280;75809;44.872;20.642;2024-01-30T00:16:57;102919.56;;;2.61;74.88
75940;BME280;75809;44.872;20.642;2024-01-30T00:19:23;102921.97;;;2.49;75.37
75940;BME280;75809;44.872;20.642;2024-01-30T00:21:48;102929.72;;;2.44;75.36
75940;BME280;75809;44.872;20.642;2024-01-30T00:24:14;102935.59;;;2.32;75.69
75940;BME280;75809;44.872;20.642;2024-01-30T00:26:39;102939.84;;;2.24;75.83
75940;BME280;75809;44.872;20.642;2024-01-30T00:29:05;102932.06;;;2.27;75.78
75940;BME280;75809;44.872;20.642;2024-01-30T00:31:30;102937.13;;;2.20;75.79
75940;BME280;75809;44.872;20.642;2024-01-30T00:33:55;102943.19;;;2.17;76.23
75940;BME280;75809;44.872;20.642;2024-01-30T00:36:21;102936.94;;;2.09;76.20
75940;BME280;75809;44.872;20.642;2024-01-30T00:38:47;102939.47;;;2.03;76.40
75940;BME280;75809;44.872;20.642;2024-01-30T00:41:12;102939.34;;;1.97;76.65
75940;BME280;75809;44.872;20.642;2024-01-30T00:43:38;102941.03;;;1.93;77.07
75940;BME280;75809;44.872;20.642;2024-01-30T00:46:04;102944.41;;;1.89;77.09
75940;BME280;75809;44.872;20.642;2024-01-30T00:48:29;102941.69;;;1.82;77.25
75940;BME280;75809;44.872;20.642;2024-01-30T00:50:55;102944.22;;;1.79;77.12
75940;BME280;75809;44.872;20.642;2024-01-30T00:53:20;102938.91;;;1.72;77.47
75940;BME280;75809;44.872;20.642;2024-01-30T00:55:46;102938.91;;;1.74;77.71
75940;BME280;75809;44.872;20.642;2024-01-30T00:58:11;102944.13;;;1.74;77.67
75940;BME280;75809;44.872;20.642;2024-01-30T01:00:37;102937.91;;;1.67;77.91
75940;BME280;75809;44.872;20.642;2024-01-30T01:03:02;102936.13;;;1.63;78.34
75940;BME280;75809;44.872;20.642;2024-01-30T01:05:28;102931.75;;;1.62;77.90
75940;BME280;75809;44.872;20.642;2024-01-30T01:07:54;102936.97;;;1.62;77.58
75940;BME280;75809;44.872;20.642;2024-01-30T01:10:20;102931.66;;;1.58;77.06
75940;BME280;75809;44.872;20.642;2024-01-30T01:12:45;102933.31;;;1.53;77.35
75940;BME280;75809;44.872;20.642;2024-01-30T01:15:11;102924.44;;;1.44;77.57
75940;BME280;75809;44.872;20.642;2024-01-30T01:17:37;102931.38;;;1.44;77.65
75940;BME280;75809;44.872;20.642;2024-01-30T01:20:04;102927.81;;;1.39;78.28
75940;BME280;75809;44.872;20.642;2024-01-30T01:22:33;102928.59;;;1.35;78.30
75940;BME280;75809;44.872;20.642;2024-01-30T01:24:59;102934.75;;;1.38;78.61
75940;BME280;75809;44.872;20.642;2024-01-30T01:27:25;102929.44;;;1.34;79.13
75940;BME280;75809;44.872;20.642;2024-01-30T01:29:51;102925.09;;;1.34;78.90
75940;BME280;75809;44.872;20.642;2024-01-30T01:32:17;102925.22;;;1.39;78.50
75940;BME280;75809;44.872;20.642;2024-01-30T01:34:42;102934.53;;;1.28;78.86
75940;BME280;75809;44.872;20.642;2024-01-30T01:37:08;102942.34;;;1.28;78.71
75940;BME280;75809;44.872;20.642;2024-01-30T01:39:33;102937.81;;;1.19;78.63
75940;BME280;75809;44.872;20.642;2024-01-30T01:41:59;102940.31;;;1.14;78.78
75940;BME280;75809;44.872;20.642;2024-01-30T01:44:24;102942.91;;;1.14;79.33
75940;BME280;75809;44.872;20.642;2024-01-30T01:46:51;102944.88;;;1.25;79.87
75940;BME280;75809;44.872;20.642;2024-01-30T01:49:17;102935.50;;;1.33;79.52
75940;BME280;75809;44.872;20.642;2024-01-30T01:51:45;102933.84;;;1.38;78.78
75940;BME280;75809;44.872;20.642;2024-01-30T01:54:13;102940.94;;;1.45;78.57
75940;BME280;75809;44.872;20.642;2024-01-30T01:56:39;102936.75;;;1.52;77.44
75940;BME280;75809;44.872;20.642;2024-01-30T01:59:06;102941.00;;;1.48;76.67
75940;BME280;75809;44.872;20.642;2024-01-30T02:01:38;102945.31;;;1.46;76.30
75940;BME280;75809;44.872;20.642;2024-01-30T02:04:04;102941.56;;;1.33;76.10
75940;BME280;75809;44.872;20.642;2024-01-30T02:06:31;102935.34;;;1.27;75.78
75940;BME280;75809;44.872;20.642;2024-01-30T02:08:57;102943.75;;;1.13;76.04
75940;BME280;75809;44.872;20.642;2024-01-30T02:11:23;102934.97;;;1.08;75.94
75940;BME280;75809;44.872;20.642;2024-01-30T02:13:49;102941.75;;;1.00;76.95
75940;BME280;75809;44.872;20.642;2024-01-30T02:16:15;102936.47;;;0.97;76.93
75940;BME280;75809;44.872;20.642;2024-01-30T02:18:42;102939.97;;;0.99;77.07
75940;BME280;75809;44.872;20.642;2024-01-30T02:21:10;102944.16;;;0.93;77.18
75940;BME280;75809;44.872;20.642;2024-01-30T02:23:36;102945.03;;;0.93;76.19
75940;BME280;75809;44.872;20.642;2024-01-30T02:26:03;102931.94;;;0.89;76.24
75940;BME280;75809;44.872;20.642;2024-01-30T02:28:28;102935.22;;;0.81;76.52
75940;BME280;75809;44.872;20.642;2024-01-30T02:30:54;102936.09;;;0.80;76.55
75940;BME280;75809;44.872;20.642;2024-01-30T02:33:19;102937.59;;;0.71;76.91
75940;BME280;75809;44.872;20.642;2024-01-30T02:35:47;102938.44;;;0.70;76.26
75940;BME280;75809;44.872;20.642;2024-01-30T02:38:12;102931.38;;;0.64;76.38
75940;BME280;75809;44.872;20.642;2024-01-30T02:40:38;102928.66;;;0.60;76.82
75940;BME280;75809;44.872;20.642;2024-01-30T02:43:04;102933.81;;;0.56;76.43
75940;BME280;75809;44.872;20.642;2024-01-30T02:45:30;102928.53;;;0.53;76.37
75940;BME280;75809;44.872;20.642;2024-01-30T02:47:55;102926.75;;;0.52;76.42
75940;BME280;75809;44.872;20.642;2024-01-30T02:50:21;102931.88;;;0.49;75.95
75940;BME280;75809;44.872;20.642;2024-01-30T02:52:46;102934.47;;;0.49;76.34
75940;BME280;75809;44.872;20.642;2024-01-30T02:55:12;102936.22;;;0.49;76.48
75940;BME280;75809;44.872;20.642;2024-01-30T02:57:38;102943.91;;;0.44;76.24
75940;BME280;75809;44.872;20.642;2024-01-30T03:00:04;102937.84;;;0.44;76.29
75940;BME280;75809;44.872;20.642;2024-01-30T03:02:32;102938.72;;;0.44;76.17
75940;BME280;75809;44.872;20.642;2024-01-30T03:04:57;102943.72;;;0.37;76.92
75940;BME280;75809;44.872;20.642;2024-01-30T03:07:23;102948.00;;;0.35;76.08
75940;BME280;75809;44.872;20.642;2024-01-30T03:09:49;102954.00;;;0.32;76.68
75940;BME280;75809;44.872;20.642;2024-01-30T03:12:14;102954.00;;;0.32;76.34
75940;BME280;75809;44.872;20.642;2024-01-30T03:14:40;102953.06;;;0.30;76.13
75940;BME280;75809;44.872;20.642;2024-01-30T03:17:05;102947.19;;;0.37;75.99
75940;BME280;75809;44.872;20.642;2024-01-30T03:19:30;102943.69;;;0.35;75.50
75940;BME280;75809;44.872;20.642;2024-01-30T03:21:56;102938.50;;;0.37;76.07
75940;BME280;75809;44.872;20.642;2024-01-30T03:24:21;102938.34;;;0.31;75.83
75940;BME280;75809;44.872;20.642;2024-01-30T03:26:47;102938.47;;;0.35;75.98
75940;BME280;75809;44.872;20.642;2024-01-30T03:29:12;102945.38;;;0.33;75.84
75940;BME280;75809;44.872;20.642;2024-01-30T03:31:39;102942.66;;;0.30;76.30
75940;BME280;75809;44.872;20.642;2024-01-30T03:34:04;102951.31;;;0.29;76.15
75940;BME280;75809;44.872;20.642;2024-01-30T03:36:30;102935.41;;;0.17;76.46
75940;BME280;75809;44.872;20.642;2024-01-30T03:38:58;102934.63;;;0.21;76.40
75940;BME280;75809;44.872;20.642;2024-01-30T03:41:23;102946.66;;;0.16;75.65
75940;BME280;75809;44.872;20.642;2024-01-30T03:43:49;102945.69;;;0.12;75.86
75940;BME280;75809;44.872;20.642;2024-01-30T03:46:14;102944.81;;;0.12;76.19
75940;BME280;75809;44.872;20.642;2024-01-30T03:48:40;102950.03;;;0.12;75.77
75940;BME280;75809;44.872;20.642;2024-01-30T03:51:05;102945.56;;;0.08;75.63
75940;BME280;75809;44.872;20.642;2024-01-30T03:53:31;102946.41;;;0.07;75.68
75940;BME280;75809;44.872;20.642;2024-01-30T03:55:56;102944.72;;;0.09;75.27
75940;BME280;75809;44.872;20.642;2024-01-30T03:58:22;102942.03;;;0.04;75.60
75940;BME280;75809;44.872;20.642;2024-01-30T04:00:48;102934.94;;;-0.02;75.11
75940;BME280;75809;44.872;20.642;2024-01-30T04:03:16;102937.47;;;-0.05;75.56
75940;BME280;75809;44.872;20.642;2024-01-30T04:05:42;102939.88;;;-0.11;75.78
75940;BME280;75809;44.872;20.642;2024-01-30T04:08:07;102937.22;;;-0.14;74.84
75940;BME280;75809;44.872;20.642;2024-01-30T04:10:33;102928.44;;;-0.19;75.67
75940;BME280;75809;44.872;20.642;2024-01-30T04:12:59;102935.19;;;-0.24;75.12
75940;BME280;75809;44.872;20.642;2024-01-30T04:15:25;102932.41;;;-0.32;75.26
75940;BME280;75809;44.872;20.642;2024-01-30T04:17:51;102938.38;;;-0.34;76.14
75940;BME280;75809;44.872;20.642;2024-01-30T04:20:16;102942.00;;;-0.29;75.62
75940;BME280;75809;44.872;20.642;2024-01-30T04:22:46;102940.97;;;-0.34;76.38
75940;BME280;75809;44.872;20.642;2024-01-30T04:25:14;102942.63;;;-0.38;75.85
75940;BME280;75809;44.872;20.642;2024-01-30T04:27:39;102938.31;;;-0.37;75.76
75940;BME280;75809;44.872;20.642;2024-01-30T04:30:05;102946.06;;;-0.39;75.99
75940;BME280;75809;44.872;20.642;2024-01-30T04:32:32;102943.31;;;-0.43;75.43
75940;BME280;75809;44.872;20.642;2024-01-30T04:34:57;102949.31;;;-0.46;75.67
75940;BME280;75809;44.872;20.642;2024-01-30T04:37:23;102943.25;;;-0.46;76.08
75940;BME280;75809;44.872;20.642;2024-01-30T04:39:48;102944.84;;;-0.51;75.89
75940;BME280;75809;44.872;20.642;2024-01-30T04:42:14;102955.22;;;-0.51;75.35
75940;BME280;75809;44.872;20.642;2024-01-30T04:44:40;102948.06;;;-0.60;75.94
75940;BME280;75809;44.872;20.642;2024-01-30T04:47:05;102960.88;;;-0.65;76.24
75940;BME280;75809;44.872;20.642;2024-01-30T04:49:33;102959.03;;;-0.69;76.64
75940;BME280;75809;44.872;20.642;2024-01-30T04:51:58;102959.88;;;-0.70;76.42
75940;BME280;75809;44.872;20.642;2024-01-30T04:54:24;102953.72;;;-0.73;76.53
75940;BME280;75809;44.872;20.642;2024-01-30T04:56:50;102957.09;;;-0.76;76.79
75940;BME280;75809;44.872;20.642;2024-01-30T04:59:15;102953.56;;;-0.78;76.56
75940;BME280;75809;44.872;20.642;2024-01-30T05:01:41;102957.75;;;-0.83;76.80
75940;BME280;75809;44.872;20.642;2024-01-30T05:04:09;102961.00;;;-0.90;77.76
75940;BME280;75809;44.872;20.642;2024-01-30T05:06:35;102950.69;;;-0.87;77.75
75940;BME280;75809;44.872;20.642;2024-01-30T05:09:00;102956.72;;;-0.88;77.51
75940;BME280;75809;44.872;20.642;2024-01-30T05:11:26;102960.97;;;-0.92;77.40
75940;BME280;75809;44.872;20.642;2024-01-30T05:13:51;102955.16;;;-0.83;76.80
75940;BME280;75809;44.872;20.642;2024-01-30T05:16:17;102960.44;;;-0.80;77.33
75940;BME280;75809;44.872;20.642;2024-01-30T05:18:43;102960.53;;;-0.77;77.89
75940;BME280;75809;44.872;20.642;2024-01-30T05:21:08;102956.13;;;-0.79;78.22
75940;BME280;75809;44.872;20.642;2024-01-30T05:23:35;102970.91;;;-0.77;78.49
75940;BME280;75809;44.872;20.642;2024-01-30T05:26:00;102960.63;;;-0.74;78.48
75940;BME280;75809;44.872;20.642;2024-01-30T05:28:26;102964.19;;;-0.70;78.32
75940;BME280;75809;44.872;20.642;2024-01-30T05:30:52;102963.22;;;-0.74;78.29
75940;BME280;75809;44.872;20.642;2024-01-30T05:33:17;102965.00;;;-0.73;78.34
75940;BME280;75809;44.872;20.642;2024-01-30T05:35:43;102971.06;;;-0.72;78.02
75940;BME280;75809;44.872;20.642;2024-01-30T05:38:08;102966.63;;;-0.75;78.08
75940;BME280;75809;44.872;20.642;2024-01-30T05:40:33;102967.53;;;-0.74;78.64
75940;BME280;75809;44.872;20.642;2024-01-30T05:42:59;102967.47;;;-0.76;78.44
75940;BME280;75809;44.872;20.642;2024-01-30T05:45:26;102967.59;;;-0.73;78.98
75940;BME280;75809;44.872;20.642;2024-01-30T05:47:52;102972.00;;;-0.69;78.64
75940;BME280;75809;44.872;20.642;2024-01-30T05:50:18;102973.84;;;-0.65;78.72
75940;BME280;75809;44.872;20.642;2024-01-30T05:52:44;102969.78;;;-0.56;78.54
75940;BME280;75809;44.872;20.642;2024-01-30T05:55:09;102977.25;;;-0.67;78.85
75940;BME280;75809;44.872;20.642;2024-01-30T05:57:37;102974.53;;;-0.72;78.57
75940;BME280;75809;44.872;20.642;2024-01-30T06:00:03;102980.63;;;-0.70;79.29
75940;BME280;75809;44.872;20.642;2024-01-30T06:02:29;102979.75;;;-0.70;77.94
75940;BME280;75809;44.872;20.642;2024-01-30T06:04:54;102981.44;;;-0.72;78.79
75940;BME280;75809;44.872;20.642;2024-01-30T06:07:20;102985.91;;;-0.67;79.11
75940;BME280;75809;44.872;20.642;2024-01-30T06:09:45;102992.84;;;-0.66;79.09
75940;BME280;75809;44.872;20.642;2024-01-30T06:12:11;102990.22;;;-0.67;78.83
75940;BME280;75809;44.872;20.642;2024-01-30T06:14:37;102992.78;;;-0.69;78.78
75940;BME280;75809;44.872;20.642;2024-01-30T06:17:03;102996.09;;;-0.74;78.49
75940;BME280;75809;44.872;20.642;2024-01-30T06:19:28;103001.13;;;-0.79;78.53
75940;BME280;75809;44.872;20.642;2024-01-30T06:21:54;103001.19;;;-0.76;78.48
75940;BME280;75809;44.872;20.642;2024-01-30T06:24:19;102999.44;;;-0.77;78.53
75940;BME280;75809;44.872;20.642;2024-01-30T06:26:45;103000.38;;;-0.75;77.81
75940;BME280;75809;44.872;20.642;2024-01-30T06:29:11;103007.38;;;-0.72;78.43
75940;BME280;75809;44.872;20.642;2024-01-30T06:31:40;103001.59;;;-0.64;77.54
75940;BME280;75809;44.872;20.642;2024-01-30T06:34:07;102997.28;;;-0.63;76.97
75940;BME280;75809;44.872;20.642;2024-01-30T06:36:32;103006.88;;;-0.61;77.45
75940;BME280;75809;44.872;20.642;2024-01-30T06:38:58;102998.31;;;-0.56;77.47
75940;BME280;75809;44.872;20.642;2024-01-30T06:41:24;103002.88;;;-0.49;77.61
75940;BME280;75809;44.872;20.642;2024-01-30T06:43:49;103003.78;;;-0.47;77.74
75940;BME280;75809;44.872;20.642;2024-01-30T06:46:15;103015.25;;;-0.41;77.91
75940;BME280;75809;44.872;20.642;2024-01-30T06:48:40;103010.34;;;-0.30;76.96
75940;BME280;75809;44.872;20.642;2024-01-30T06:51:06;103011.19;;;-0.31;77.12
75940;BME280;75809;44.872;20.642;2024-01-30T06:53:32;103014.88;;;-0.23;77.10
75940;BME280;75809;44.872;20.642;2024-01-30T06:55:57;103008.59;;;-0.31;76.93
75940;BME280;75809;44.872;20.642;2024-01-30T06:58:23;103014.78;;;-0.26;75.62
75940;BME280;75809;44.872;20.642;2024-01-30T07:00:48;103013.03;;;-0.27;76.06
75940;BME280;75809;44.872;20.642;2024-01-30T07:03:14;103014.72;;;-0.29;76.05
75940;BME280;75809;44.872;20.642;2024-01-30T07:05:39;103013.06;;;-0.25;75.44
75940;BME280;75809;44.872;20.642;2024-01-30T07:08:05;103012.06;;;-0.31;75.67
75940;BME280;75809;44.872;20.642;2024-01-30T07:10:30;103012.41;;;-0.18;76.01
75940;BME280;75809;44.872;20.642;2024-01-30T07:12:56;103014.28;;;-0.13;74.68
75940;BME280;75809;44.872;20.642;2024-01-30T07:15:22;103020.28;;;-0.15;75.13
75940;BME280;75809;44.872;20.642;2024-01-30T07:17:47;103022.09;;;-0.13;75.00
75940;BME280;75809;44.872;20.642;2024-01-30T07:20:13;103022.22;;;-0.08;74.93
75940;BME280;75809;44.872;20.642;2024-01-30T07:22:39;103031.78;;;-0.07;74.18
75940;BME280;75809;44.872;20.642;2024-01-30T07:25:05;103020.59;;;-0.05;74.51
75940;BME280;75809;44.872;20.642;2024-01-30T07:27:31;103024.28;;;0.04;74.63
75940;BME280;75809;44.872;20.642;2024-01-30T07:29:56;103025.28;;;0.09;74.00
75940;BME280;75809;44.872;20.642;2024-01-30T07:32:23;103015.91;;;0.14;73.41
75940;BME280;75809;44.872;20.642;2024-01-30T07:34:49;103008.06;;;0.12;73.78
75940;BME280;75809;44.872;20.642;2024-01-30T07:37:14;103015.09;;;0.16;74.75
75940;BME280;75809;44.872;20.642;2024-01-30T07:39:41;103022.03;;;0.17;74.36
75940;BME280;75809;44.872;20.642;2024-01-30T07:42:07;103019.59;;;0.22;73.89
75940;BME280;75809;44.872;20.642;2024-01-30T07:44:33;103018.22;;;0.36;73.22
75940;BME280;75809;44.872;20.642;2024-01-30T07:46:59;103020.22;;;0.46;72.43
75940;BME280;75809;44.872;20.642;2024-01-30T07:49:25;103017.75;;;0.52;73.11
75940;BME280;75809;44.872;20.642;2024-01-30T07:51:50;103022.28;;;0.60;72.54
75940;BME280;75809;44.872;20.642;2024-01-30T07:54:16;103025.03;;;0.66;72.32
75940;BME280;75809;44.872;20.642;2024-01-30T07:56:41;103019.16;;;0.74;72.25
75940;BME280;75809;44.872;20.642;2024-01-30T07:59:10;103021.22;;;0.86;71.38
75940;BME280;75809;44.872;20.642;2024-01-30T08:01:37;103018.81;;;0.95;71.63
75940;BME280;75809;44.872;20.642;2024-01-30T08:04:02;103015.50;;;1.02;71.63
75940;BME280;75809;44.872;20.642;2024-01-30T08:06:28;103017.41;;;1.09;71.07
75940;BME280;75809;44.872;20.642;2024-01-30T08:08:53;103022.09;;;1.24;70.76
75940;BME280;75809;44.872;20.642;2024-01-30T08:11:22;103016.94;;;1.27;70.56
75940;BME280;75809;44.872;20.642;2024-01-30T08:13:51;103014.63;;;1.39;70.07
75940;BME280;75809;44.872;20.642;2024-01-30T08:16:17;103018.16;;;1.43;70.12
75940;BME280;75809;44.872;20.642;2024-01-30T08:18:43;103024.31;;;1.47;70.21
75940;BME280;75809;44.872;20.642;2024-01-30T08:21:08;103026.28;;;1.58;70.31
75940;BME280;75809;44.872;20.642;2024-01-30T08:23:34;103013.41;;;1.64;70.12
75940;BME280;75809;44.872;20.642;2024-01-30T08:26:00;103024.88;;;1.72;70.14
75940;BME280;75809;44.872;20.642;2024-01-30T08:28:25;103024.19;;;1.81;69.89
75940;BME280;75809;44.872;20.642;2024-01-30T08:30:51;103017.34;;;1.88;70.20
75940;BME280;75809;44.872;20.642;2024-01-30T08:33:17;103025.31;;;1.94;70.17
75940;BME280;75809;44.872;20.642;2024-01-30T08:35:42;103031.41;;;1.96;70.29
75940;BME280;75809;44.872;20.642;2024-01-30T08:38:08;103037.78;;;2.12;70.06
75940;BME280;75809;44.872;20.642;2024-01-30T08:40:34;103034.56;;;2.23;70.02
75940;BME280;75809;44.872;20.642;2024-01-30T08:43:00;103030.47;;;2.38;69.66
75940;BME280;75809;44.872;20.642;2024-01-30T08:45:25;103024.53;;;2.45;68.91
75940;BME280;75809;44.872;20.642;2024-01-30T08:47:51;103033.31;;;2.51;68.51
75940;BME280;75809;44.872;20.642;2024-01-30T08:50:16;103033.47;;;2.59;68.90
75940;BME280;75809;44.872;20.642;2024-01-30T08:52:42;103022.31;;;2.69;68.57
75940;BME280;75809;44.872;20.642;2024-01-30T08:55:07;103030.31;;;2.78;68.04
75940;BME280;75809;44.872;20.642;2024-01-30T08:57:33;103029.50;;;2.84;68.34
75940;BME280;75809;44.872;20.642;2024-01-30T08:59:58;103035.75;;;2.94;67.77
75940;BME280;75809;44.872;20.642;2024-01-30T09:02:24;103036.75;;;3.00;67.18
75940;BME280;75809;44.872;20.642;2024-01-30T09:04:49;103035.19;;;3.11;66.24
75940;BME280;75809;44.872;20.642;2024-01-30T09:07:15;103041.41;;;3.19;66.31
75940;BME280;75809;44.872;20.642;2024-01-30T09:09:41;103032.75;;;3.25;66.19
75940;BME280;75809;44.872;20.642;2024-01-30T09:12:07;103037.06;;;3.22;66.00
75940;BME280;75809;44.872;20.642;2024-01-30T09:14:35;103031.06;;;3.29;66.34
75940;BME280;75809;44.872;20.642;2024-01-30T09:17:00;103030.31;;;3.39;65.92
75940;BME280;75809;44.872;20.642;2024-01-30T09:19:26;103024.31;;;3.44;66.25
75940;BME280;75809;44.872;20.642;2024-01-30T09:21:53;103027.09;;;3.55;66.18
75940;BME280;75809;44.872;20.642;2024-01-30T09:24:18;103025.47;;;3.66;65.36
75940;BME280;75809;44.872;20.642;2024-01-30T09:26:44;103025.53;;;3.71;65.08
75940;BME280;75809;44.872;20.642;2024-01-30T09:29:09;103028.22;;;3.77;64.92
75940;BME280;75809;44.872;20.642;2024-01-30T09:31:35;103030.03;;;3.83;65.25
75940;BME280;75809;44.872;20.642;2024-01-30T09:34:00;103023.13;;;3.86;64.29
75940;BME280;75809;44.872;20.642;2024-01-30T09:36:26;103013.56;;;3.90;64.02
75940;BME280;75809;44.872;20.642;2024-01-30T09:38:52;103025.00;;;3.99;64.22
75940;BME280;75809;44.872;20.642;2024-01-30T09:41:19;103018.16;;;4.11;63.26
75940;BME280;75809;44.872;20.642;2024-01-30T09:43:47;103013.94;;;4.25;62.24
75940;BME280;75809;44.872;20.642;2024-01-30T09:46:17;103017.47;;;4.30;61.76
75940;BME280;75809;44.872;20.642;2024-01-30T09:48:48;103011.47;;;4.40;61.96
75940;BME280;75809;44.872;20.642;2024-01-30T09:51:15;103004.63;;;4.54;60.74
75940;BME280;75809;44.872;20.642;2024-01-30T09:53:42;103003.88;;;4.69;58.91
75940;BME280;75809;44.872;20.642;2024-01-30T09:56:09;103004.78;;;4.76;59.21
75940;BME280;75809;44.872;20.642;2024-01-30T09:58:34;102997.88;;;4.81;60.02
75940;BME280;75809;44.872;20.642;2024-01-30T10:01:00;103006.69;;;4.92;59.30
75940;BME280;75809;44.872;20.642;2024-01-30T10:03:25;102999.78;;;5.06;58.97
75940;BME280;75809;44.872;20.642;2024-01-30T10:05:52;102986.69;;;5.08;58.47
75940;BME280;75809;44.872;20.642;2024-01-30T10:08:18;102985.88;;;5.19;58.57
75940;BME280;75809;44.872;20.642;2024-01-30T10:10:47;102985.03;;;5.23;57.82
75940;BME280;75809;44.872;20.642;2024-01-30T10:13:13;102980.69;;;5.29;56.91
75940;BME280;75809;44.872;20.642;2024-01-30T10:15:39;102988.59;;;5.41;56.30
75940;BME280;75809;44.872;20.642;2024-01-30T10:18:05;102980.75;;;5.38;56.24
75940;BME280;75809;44.872;20.642;2024-01-30T10:20:32;102989.56;;;5.54;56.32
75940;BME280;75809;44.872;20.642;2024-01-30T10:22:58;102973.00;;;5.64;55.32
75940;BME280;75809;44.872;20.642;2024-01-30T10:25:25;102974.78;;;5.80;55.19
75940;BME280;75809;44.872;20.642;2024-01-30T10:27:54;102981.84;;;5.93;53.72
75940;BME280;75809;44.872;20.642;2024-01-30T10:30:23;102977.50;;;6.03;53.65
75940;BME280;75809;44.872;20.642;2024-01-30T10:32:50;102981.03;;;6.14;52.68
75940;BME280;75809;44.872;20.642;2024-01-30T10:35:16;102966.16;;;6.25;51.27
75940;BME280;75809;44.872;20.642;2024-01-30T10:37:47;102965.31;;;6.38;50.10
75940;BME280;75809;44.872;20.642;2024-01-30T10:40:14;102963.56;;;6.50;50.25
75940;BME280;75809;44.872;20.642;2024-01-30T10:42:44;102962.66;;;6.57;48.61
75940;BME280;75809;44.872;20.642;2024-01-30T10:45:13;102953.94;;;6.70;48.48
75940;BME280;75809;44.872;20.642;2024-01-30T10:47:45;102954.81;;;6.71;49.21
75940;BME280;75809;44.872;20.642;2024-01-30T10:50:11;102952.16;;;6.77;48.90
75940;BME280;75809;44.872;20.642;2024-01-30T10:52:37;102961.75;;;6.88;48.19
75940;BME280;75809;44.872;20.642;2024-01-30T10:55:04;102951.22;;;7.01;48.82
75940;BME280;75809;44.872;20.642;2024-01-30T10:57:34;102952.97;;;7.14;47.41
75940;BME280;75809;44.872;20.642;2024-01-30T11:00:03;102938.91;;;7.25;47.02
75940;BME280;75809;44.872;20.642;2024-01-30T11:02:31;102944.09;;;7.42;46.40
75940;BME280;75809;44.872;20.642;2024-01-30T11:04:58;102936.13;;;7.54;45.84
75940;BME280;75809;44.872;20.642;2024-01-30T11:07:29;102938.72;;;7.64;44.44
75940;BME280;75809;44.872;20.642;2024-01-30T11:12:27;102932.44;;;7.92;45.32
75940;BME280;75809;44.872;20.642;2024-01-30T11:15:09;102927.03;;;8.07;44.94
75940;BME280;75809;44.872;20.642;2024-01-30T11:22:50;102926.78;;;8.47;42.52
75940;BME280;75809;44.872;20.642;2024-01-30T11:25:18;102916.09;;;8.61;41.67
75940;BME280;75809;44.872;20.642;2024-01-30T11:27:45;102915.09;;;8.76;40.76
75940;BME280;75809;44.872;20.642;2024-01-30T11:30:20;102909.66;;;8.91;40.15
75940;BME280;75809;44.872;20.642;2024-01-30T11:33:07;102915.53;;;9.13;40.50
75940;BME280;75809;44.872;20.642;2024-01-30T11:38:04;102896.84;;;9.33;40.25
75940;BME280;75809;44.872;20.642;2024-01-30T11:40:31;102903.75;;;9.43;40.49
75940;BME280;75809;44.872;20.642;2024-01-30T11:42:59;102898.28;;;9.58;39.98
75940;BME280;75809;44.872;20.642;2024-01-30T11:45:26;102886.66;;;9.71;40.19
75940;BME280;75809;44.872;20.642;2024-01-30T11:47:53;102880.19;;;9.91;39.70
75940;BME280;75809;44.872;20.642;2024-01-30T11:50:18;102878.47;;;9.90;39.67
75940;BME280;75809;44.872;20.642;2024-01-30T11:52:44;102874.06;;;9.90;38.64
75940;BME280;75809;44.872;20.642;2024-01-30T11:55:10;102875.63;;;10.02;38.48
75940;BME280;75809;44.872;20.642;2024-01-30T11:57:35;102870.03;;;10.22;37.56
75940;BME280;75809;44.872;20.642;2024-01-30T12:00:05;102870.81;;;10.27;36.50
75940;BME280;75809;44.872;20.642;2024-01-30T12:02:40;102863.53;;;10.39;36.85
75940;BME280;75809;44.872;20.642;2024-01-30T12:05:06;102867.78;;;10.50;36.58
75940;BME280;75809;44.872;20.642;2024-01-30T12:07:32;102858.31;;;10.83;36.20
75940;BME280;75809;44.872;20.642;2024-01-30T12:09:58;102850.06;;;10.99;35.60
75940;BME280;75809;44.872;20.642;2024-01-30T12:12:27;102861.34;;;11.49;35.15
75940;BME280;75809;44.872;20.642;2024-01-30T12:14:54;102854.63;;;12.09;33.85
75940;BME280;75809;44.872;20.642;2024-01-30T12:17:30;102847.94;;;12.93;32.53
75940;BME280;75809;44.872;20.642;2024-01-30T12:20:05;102835.97;;;13.67;30.90
75940;BME280;75809;44.872;20.642;2024-01-30T12:22:35;102837.13;;;14.13;29.83
75940;BME280;75809;44.872;20.642;2024-01-30T12:25:01;102840.75;;;14.35;29.56
75940;BME280;75809;44.872;20.642;2024-01-30T12:27:26;102836.00;;;14.95;28.47
75940;BME280;75809;44.872;20.642;2024-01-30T12:29:57;102830.69;;;15.40;27.76
75940;BME280;75809;44.872;20.642;2024-01-30T12:32:23;102834.72;;;15.50;25.77
75940;BME280;75809;44.872;20.642;2024-01-30T12:34:49;102833.81;;;15.73;24.78
75940;BME280;75809;44.872;20.642;2024-01-30T12:37:14;102830.88;;;15.57;25.69
75940;BME280;75809;44.872;20.642;2024-01-30T12:39:45;102819.00;;;15.88;25.27
75940;BME280;75809;44.872;20.642;2024-01-30T12:42:10;102822.75;;;16.04;25.38
75940;BME280;75809;44.872;20.642;2024-01-30T12:44:36;102822.69;;;16.46;24.91
75940;BME280;75809;44.872;20.642;2024-01-30T12:47:04;102815.06;;;16.58;25.00
75940;BME280;75809;44.872;20.642;2024-01-30T12:49:30;102817.09;;;16.73;25.02
75940;BME280;75809;44.872;20.642;2024-01-30T12:51:56;102816.31;;;16.90;24.90